Time;durP1;ratioP1;P1;durP2;ratioP2;P2;SDS_P1;SDS_P2;PMS_P1;PMS_P2;Temp;Humidity;BMP_temperature;BMP_pressure;BME280_temperature;BME280_humidity;BME280_pressure;Samples;Min_cycle;Max_cycle;Signal;HPM_P1;HPM_P2
2022/05/21 00:01:43;;;;;;;5.55;1.52;;;13.30;99.90;;;;;;5033910;28;20213;-78
2022/05/21 00:04:08;;;;;;;5.68;1.85;;;13.30;99.90;;;;;;5033196;28;20168;-78
2022/05/21 00:06:34;;;;;;;3.25;1.55;;;13.40;99.90;;;;;;5040699;28;20218;-78
2022/05/21 00:08:59;;;;;;;3.58;1.40;;;13.40;99.90;;;;;;5056735;28;20235;-78
2022/05/21 00:11:25;;;;;;;6.30;1.35;;;13.30;99.90;;;;;;5057167;28;20200;-78
2022/05/21 00:13:51;;;;;;;3.88;1.80;;;13.30;99.90;;;;;;5057959;28;20168;-78
2022/05/21 00:16:17;;;;;;;3.30;1.58;;;13.20;99.90;;;;;;5024332;28;20184;-78
2022/05/21 00:18:43;;;;;;;3.13;1.60;;;13.30;99.90;;;;;;5033433;28;20517;-78
2022/05/21 00:21:08;;;;;;;2.50;1.63;;;13.40;99.90;;;;;;5032795;28;20168;-78
2022/05/21 00:23:35;;;;;;;5.00;1.70;;;13.50;99.90;;;;;;5032077;28;20187;-78
2022/05/21 00:26:05;;;;;;;2.13;1.60;;;13.50;99.90;;;;;;5032270;28;20229;-81
2022/05/21 00:28:32;;;;;;;3.88;1.83;;;13.50;99.90;;;;;;5032544;28;20279;-79
2022/05/21 00:30:59;;;;;;;7.68;1.90;;;13.60;99.90;;;;;;5032340;28;20163;-79
2022/05/21 00:33:27;;;;;;;1.45;1.13;;;13.50;99.90;;;;;;5031702;28;20531;-80
2022/05/21 00:35:53;;;;;;;5.32;2.17;;;13.40;99.90;;;;;;5032399;28;20164;-79
2022/05/21 00:38:19;;;;;;;3.10;1.40;;;13.50;99.90;;;;;;5032069;28;20242;-79
2022/05/21 00:40:46;;;;;;;2.92;1.48;;;13.50;99.90;;;;;;5032534;28;20251;-81
2022/05/21 00:43:36;;;;;;;8.10;1.75;;;13.50;99.90;;;;;;5032250;28;20164;-79
2022/05/21 00:46:05;;;;;;;3.58;1.77;;;13.40;99.90;;;;;;5032131;28;20755;-79
2022/05/21 00:48:31;;;;;;;4.38;1.33;;;13.30;99.90;;;;;;5031773;28;20184;-79
2022/05/21 00:50:57;;;;;;;6.82;1.67;;;13.10;99.90;;;;;;5032323;28;20176;-79
2022/05/21 00:53:24;;;;;;;6.80;1.48;;;13.20;99.90;;;;;;5032186;28;20222;-79
2022/05/21 00:55:51;;;;;;;6.55;1.25;;;13.30;99.90;;;;;;5032487;28;20680;-79
2022/05/21 01:01:07;;;;;;;2.35;1.27;;;13.30;99.90;;;;;;5032426;28;20267;-79
2022/05/21 01:03:33;;;;;;;8.05;1.48;;;13.10;99.90;;;;;;5032183;28;20167;-79
2022/05/21 01:06:02;;;;;;;6.13;1.60;;;13.10;99.90;;;;;;5016629;28;20211;-79
2022/05/21 01:08:28;;;;;;;4.97;1.67;;;13.10;99.90;;;;;;5035682;28;20176;-79
2022/05/21 01:11:00;;;;;;;2.10;1.33;;;12.90;99.90;;;;;;5017639;28;20180;-79
2022/05/21 01:13:28;;;;;;;4.53;1.33;;;12.90;99.90;;;;;;5035579;28;20214;-78
2022/05/21 01:15:55;;;;;;;6.32;1.80;;;12.90;99.90;;;;;;5035778;28;20191;-78
2022/05/21 01:18:22;;;;;;;5.68;1.42;;;12.90;99.90;;;;;;5035434;28;20192;-78
2022/05/21 01:20:52;;;;;;;5.32;1.70;;;13.00;99.90;;;;;;5035673;28;20164;-78
2022/05/21 01:23:19;;;;;;;1.70;1.35;;;13.10;99.90;;;;;;5035430;28;20180;-78
2022/05/21 01:25:47;;;;;;;4.15;1.65;;;13.10;99.90;;;;;;5035322;28;20286;-78
2022/05/21 01:28:16;;;;;;;9.07;2.03;;;13.10;99.90;;;;;;5035164;28;20180;-78
2022/05/21 01:30:46;;;;;;;2.05;1.30;;;13.20;99.90;;;;;;5035418;28;20168;-78
2022/05/21 01:33:15;;;;;;;7.82;1.75;;;13.10;99.90;;;;;;5035410;28;20167;-78
2022/05/21 01:35:43;;;;;;;6.57;1.60;;;12.90;99.90;;;;;;5035223;28;20179;-78
2022/05/21 01:38:10;;;;;;;6.70;1.70;;;12.80;99.90;;;;;;5034845;28;20191;-79
2022/05/21 01:40:36;;;;;;;10.18;1.92;;;12.90;99.90;;;;;;5035188;28;20174;-79
2022/05/21 01:45:51;;;;;;;4.80;1.83;;;13.00;99.90;;;;;;5035172;28;20222;-79
2022/05/21 01:48:19;;;;;;;7.97;1.65;;;13.10;99.90;;;;;;5035100;28;20191;-80
2022/05/21 01:50:45;;;;;;;8.32;1.90;;;13.20;99.90;;;;;;5035288;28;20254;-79
2022/05/21 01:53:11;;;;;;;3.53;1.67;;;13.20;99.90;;;;;;5035079;28;20179;-79
2022/05/21 01:55:38;;;;;;;5.00;2.13;;;13.10;99.90;;;;;;5034790;28;20241;-79
2022/05/21 01:58:04;;;;;;;5.35;2.05;;;13.10;99.90;;;;;;5034850;28;20196;-79
2022/05/21 02:00:30;;;;;;;4.15;1.58;;;13.10;99.90;;;;;;5034935;28;20250;-79
2022/05/21 02:02:56;;;;;;;3.22;1.50;;;12.90;99.90;;;;;;5034801;28;20247;-78
2022/05/21 02:05:22;;;;;;;3.67;1.50;;;12.90;99.90;;;;;;5034555;28;20314;-79
2022/05/21 02:07:47;;;;;;;4.47;1.40;;;12.90;99.90;;;;;;5034603;28;20184;-81
2022/05/21 02:10:13;;;;;;;5.10;2.00;;;12.90;99.90;;;;;;5016953;28;20226;-79
2022/05/21 02:12:39;;;;;;;5.60;2.00;;;12.90;99.90;;;;;;5034819;28;20171;-80
2022/05/21 02:15:05;;;;;;;9.45;1.33;;;12.70;99.90;;;;;;5034578;28;20164;-79
2022/05/21 02:17:31;;;;;;;6.05;1.73;;;12.70;99.90;;;;;;5034217;28;20270;-80
2022/05/21 02:19:56;;;;;;;4.60;1.55;;;12.80;99.90;;;;;;5034572;28;20676;-78
2022/05/21 02:22:22;;;;;;;3.30;1.33;;;12.80;99.90;;;;;;5034632;28;20675;-78
2022/05/21 02:24:48;;;;;;;8.73;2.25;;;12.80;99.90;;;;;;5034499;28;20266;-79
2022/05/21 02:27:15;;;;;;;10.07;1.73;;;12.70;99.90;;;;;;5034205;28;20195;-78
2022/05/21 02:29:41;;;;;;;7.05;1.55;;;12.90;99.90;;;;;;5033940;28;20199;-78
2022/05/21 02:32:08;;;;;;;7.97;1.80;;;13.00;99.90;;;;;;5034452;28;20167;-79
2022/05/21 02:34:34;;;;;;;3.35;1.80;;;13.00;99.90;;;;;;5034414;28;20191;-78
2022/05/21 02:39:44;;;;;;;7.32;1.73;;;12.70;99.90;;;;;;5033964;28;20533;-78
2022/05/21 02:44:55;;;;;;;3.47;1.50;;;13.00;99.90;;;;;;5034245;28;20234;-78
2022/05/21 02:47:21;;;;;;;3.85;1.75;;;12.90;99.90;;;;;;5034084;28;20194;-79
2022/05/21 02:49:47;;;;;;;4.70;1.65;;;12.80;99.90;;;;;;5033906;28;20242;-78
2022/05/21 02:52:13;;;;;;;9.70;1.75;;;12.70;99.90;;;;;;5033539;28;20255;-78
2022/05/21 02:54:38;;;;;;;7.03;2.10;;;12.70;99.90;;;;;;5033917;28;20192;-79
2022/05/21 02:57:08;;;;;;;6.50;1.95;;;12.60;99.90;;;;;;5033391;28;20184;-78
2022/05/21 02:59:34;;;;;;;3.30;1.67;;;12.60;99.90;;;;;;5033441;28;20221;-78
2022/05/21 03:02:00;;;;;;;5.45;1.45;;;12.70;99.90;;;;;;5033414;28;20164;-79
2022/05/21 03:04:26;;;;;;;3.92;1.90;;;12.70;99.90;;;;;;5033621;28;20168;-79
2022/05/21 03:06:52;;;;;;;5.38;1.70;;;12.80;99.90;;;;;;5033494;28;20211;-79
2022/05/21 03:12:02;;;;;;;5.15;2.03;;;12.80;99.90;;;;;;5033642;28;20253;-79
2022/05/21 03:14:27;;;;;;;6.63;2.25;;;12.70;99.90;;;;;;5033409;28;20206;-78
2022/05/21 03:16:59;;;;;;;5.70;2.35;;;12.70;99.90;;;;;;5033245;28;20190;-78
2022/05/21 03:19:28;;;;;;;5.22;1.60;;;12.70;99.90;;;;;;5033358;28;20255;-79
2022/05/21 03:21:54;;;;;;;8.50;2.38;;;12.70;99.90;;;;;;5033241;28;20298;-78
2022/05/21 03:24:20;;;;;;;4.20;1.73;;;12.70;99.90;;;;;;5033460;28;20270;-79
2022/05/21 03:26:46;;;;;;;7.45;2.38;;;12.70;99.90;;;;;;5033292;28;20286;-79
2022/05/21 03:29:12;;;;;;;9.27;2.25;;;12.70;99.90;;;;;;5033013;28;20172;-78
2022/05/21 03:31:38;;;;;;;5.80;1.98;;;12.70;99.90;;;;;;5033283;28;20289;-79
2022/05/21 03:34:04;;;;;;;7.80;2.90;;;12.60;99.90;;;;;;5032825;28;20254;-78
2022/05/21 03:36:29;;;;;;;5.45;2.30;;;12.60;99.90;;;;;;5033220;28;20549;-78
2022/05/21 03:38:55;;;;;;;7.85;2.10;;;12.50;99.90;;;;;;5033101;28;20161;-79
2022/05/21 03:41:22;;;;;;;7.03;2.20;;;12.20;99.90;;;;;;5032971;28;20176;-77
2022/05/21 03:43:47;;;;;;;8.32;3.47;;;12.30;99.90;;;;;;5047763;28;20147;-78
2022/05/21 03:46:14;;;;;;;8.45;2.45;;;12.30;99.90;;;;;;5052388;28;20200;-78
2022/05/21 03:48:39;;;;;;;9.85;2.55;;;12.50;99.90;;;;;;5050677;28;20168;-79
2022/05/21 03:51:05;;;;;;;4.13;2.00;;;12.50;99.90;;;;;;5050433;28;20276;-76
2022/05/21 03:53:31;;;;;;;4.32;2.10;;;12.60;99.90;;;;;;5036519;28;20188;-80
2022/05/21 03:55:58;;;;;;;6.30;2.50;;;12.60;99.90;;;;;;5036852;28;20165;-78
2022/05/21 03:58:25;;;;;;;4.18;2.30;;;12.60;99.90;;;;;;5052664;28;20201;-79
2022/05/21 04:00:50;;;;;;;5.20;2.08;;;12.70;99.90;;;;;;5049686;28;20700;-79
2022/05/21 04:03:16;;;;;;;10.25;2.10;;;12.90;99.90;;;;;;5037214;28;20191;-79
2022/05/21 04:05:42;;;;;;;7.05;2.70;;;12.80;99.90;;;;;;5036420;28;20204;-79
2022/05/21 04:08:09;;;;;;;11.50;2.08;;;12.90;99.90;;;;;;5034025;28;20656;-79
2022/05/21 04:10:35;;;;;;;7.93;2.10;;;13.00;99.90;;;;;;5033000;28;20306;-79
2022/05/21 04:13:01;;;;;;;6.45;1.67;;;13.30;99.90;;;;;;5032899;28;20168;-80
2022/05/21 04:15:26;;;;;;;9.18;2.60;;;13.50;99.90;;;;;;5033321;28;20635;-79
2022/05/21 04:17:56;;;;;;;4.88;1.83;;;13.70;99.90;;;;;;5035154;28;20188;-79
2022/05/21 04:20:23;;;;;;;11.52;1.90;;;13.60;99.90;;;;;;5036032;28;20171;-79
2022/05/21 04:22:49;;;;;;;7.28;1.55;;;13.60;99.90;;;;;;5014655;28;20540;-79
2022/05/21 04:25:15;;;;;;;9.52;3.42;;;13.50;99.90;;;;;;5032586;28;20209;-79
2022/05/21 04:27:41;;;;;;;15.07;3.15;;;13.40;99.90;;;;;;5034167;28;20192;-79
2022/05/21 04:30:11;;;;;;;15.82;2.95;;;13.60;99.90;;;;;;5035300;28;20159;-77
2022/05/21 04:32:37;;;;;;;8.60;2.58;;;13.80;99.90;;;;;;5034514;28;20196;-79
2022/05/21 04:35:04;;;;;;;9.77;3.20;;;13.80;99.90;;;;;;5039589;28;20841;-78
2022/05/21 04:37:29;;;;;;;14.93;2.80;;;13.70;99.90;;;;;;5044115;28;20164;-78
2022/05/21 04:39:55;;;;;;;9.07;2.35;;;13.80;99.90;;;;;;5055220;28;20152;-78
2022/05/21 04:42:20;;;;;;;19.70;2.90;;;13.90;99.90;;;;;;5040911;28;20160;-78
2022/05/21 04:44:46;;;;;;;8.10;2.00;;;13.90;99.90;;;;;;5060714;28;20168;-78
2022/05/21 04:47:12;;;;;;;10.80;2.75;;;13.90;99.90;;;;;;5036629;28;20212;-80
2022/05/21 04:49:38;;;;;;;9.05;3.03;;;14.10;99.90;;;;;;5037585;28;20180;-79
2022/05/21 04:52:04;;;;;;;18.30;2.50;;;14.20;99.90;;;;;;5037498;28;20175;-80
2022/05/21 04:54:30;;;;;;;11.40;2.95;;;14.20;99.90;;;;;;5037274;28;20167;-79
2022/05/21 04:56:56;;;;;;;8.93;2.30;;;14.30;99.90;;;;;;5036000;28;20187;-79
2022/05/21 04:59:21;;;;;;;7.30;1.90;;;14.50;99.90;;;;;;5036079;28;20172;-79
2022/05/21 05:01:47;;;;;;;11.20;2.80;;;14.60;99.90;;;;;;5036028;28;20179;-81
2022/05/21 05:04:13;;;;;;;4.63;1.90;;;14.50;99.90;;;;;;5018395;28;20656;-79
2022/05/21 05:06:39;;;;;;;10.07;2.58;;;14.70;99.90;;;;;;5035607;28;20608;-80
2022/05/21 05:09:07;;;;;;;11.20;2.75;;;14.90;99.90;;;;;;5035975;28;20241;-79
2022/05/21 05:11:33;;;;;;;6.78;2.08;;;14.80;99.90;;;;;;5035842;28;20179;-79
2022/05/21 05:13:58;;;;;;;13.45;1.88;;;15.00;99.90;;;;;;5018305;28;20620;-80
2022/05/21 05:16:24;;;;;;;7.82;1.90;;;14.90;99.90;;;;;;5035769;28;20202;-79
2022/05/21 05:18:50;;;;;;;19.25;2.22;;;14.90;99.90;;;;;;5035271;28;20222;-81
2022/05/21 05:21:15;;;;;;;9.00;2.35;;;14.90;99.90;;;;;;5035745;28;20183;-79
2022/05/21 05:23:42;;;;;;;13.05;2.20;;;14.70;99.90;;;;;;5036227;28;20245;-79
2022/05/21 05:26:08;;;;;;;9.88;2.15;;;14.70;99.90;;;;;;5017826;28;20211;-79
2022/05/21 05:28:34;;;;;;;10.50;2.53;;;14.70;99.90;;;;;;5035552;28;20192;-79
2022/05/21 05:30:59;;;;;;;12.88;2.58;;;14.80;99.90;;;;;;5035702;28;20255;-79
2022/05/21 05:33:26;;;;;;;14.88;2.60;;;14.90;99.90;;;;;;5036535;28;20509;-79
2022/05/21 05:35:52;;;;;;;16.70;3.03;;;15.20;99.90;;;;;;5035362;28;20176;-79
2022/05/21 05:38:19;;;;;;;8.55;2.00;;;15.40;99.90;;;;;;5035095;28;20556;-78
2022/05/21 05:40:46;;;;;;;12.70;2.58;;;15.60;99.90;;;;;;5035378;28;20222;-79
2022/05/21 05:43:15;;;;;;;9.10;1.92;;;15.80;99.90;;;;;;5035337;28;20178;-78
2022/05/21 05:45:41;;;;;;;11.13;1.90;;;15.70;99.90;;;;;;5035472;28;20269;-80
2022/05/21 05:48:07;;;;;;;15.60;2.70;;;15.70;99.90;;;;;;5016759;28;20199;-81
2022/05/21 05:50:32;;;;;;;8.02;2.67;;;15.80;99.90;;;;;;5034892;28;20164;-81
2022/05/21 05:53:03;;;;;;;10.52;2.65;;;15.80;99.90;;;;;;5017399;28;20171;-81
2022/05/21 05:55:30;;;;;;;7.65;1.85;;;15.80;99.90;;;;;;5035206;28;20263;-81
2022/05/21 05:57:56;;;;;;;12.13;2.47;;;15.70;99.90;;;;;;5017226;28;20598;-80
2022/05/21 06:00:23;;;;;;;15.30;2.83;;;15.40;99.90;;;;;;5017222;28;20203;-81
2022/05/21 06:03:01;;;;;;;13.30;2.80;;;15.50;99.90;;;;;;5035150;28;20504;-84
2022/05/21 06:05:32;;;;;;;15.15;2.75;;;15.70;99.90;;;;;;5017541;28;20242;-84
2022/05/21 06:08:01;;;;;;;13.95;3.20;;;16.10;99.90;;;;;;5017147;28;20282;-83
2022/05/21 06:10:36;;;;;;;14.95;3.10;;;16.10;99.90;;;;;;5034938;28;20627;-84
2022/05/21 06:13:02;;;;;;;10.50;3.72;;;16.30;99.90;;;;;;5016955;28;20209;-83
2022/05/21 06:15:28;;;;;;;11.63;2.58;;;16.20;99.90;;;;;;5034654;28;20221;-83
2022/05/21 06:17:54;;;;;;;10.40;2.40;;;16.30;99.90;;;;;;5017294;28;20282;-83
2022/05/21 06:20:24;;;;;;;9.35;2.42;;;16.40;99.90;;;;;;5017451;28;20160;-82
2022/05/21 06:22:50;;;;;;;20.02;2.85;;;16.30;99.90;;;;;;5016226;28;20222;-78
2022/05/21 06:25:18;;;;;;;17.83;2.90;;;16.30;99.90;;;;;;5034136;28;20203;-82
2022/05/21 06:27:49;;;;;;;18.27;3.05;;;16.40;99.90;;;;;;5016433;28;20195;-78
2022/05/21 06:30:16;;;;;;;14.07;2.75;;;16.40;99.90;;;;;;5034134;28;20164;-78
2022/05/21 06:32:42;;;;;;;11.35;2.55;;;16.40;99.90;;;;;;5034012;28;20210;-79
2022/05/21 06:35:09;;;;;;;19.10;3.63;;;16.50;99.90;;;;;;5034177;28;20212;-79
2022/05/21 06:37:35;;;;;;;10.15;4.07;;;16.60;99.90;;;;;;5034157;28;20275;-80
2022/05/21 06:40:01;;;;;;;23.70;3.40;;;16.60;99.90;;;;;;5016509;28;20261;-78
2022/05/21 06:42:27;;;;;;;15.02;4.00;;;16.90;99.90;;;;;;5033942;28;20239;-78
2022/05/21 06:44:53;;;;;;;4.55;2.80;;;17.00;99.90;;;;;;5033737;28;20171;-78
2022/05/21 06:47:18;;;;;;;21.42;4.25;;;17.00;99.90;;;;;;5033843;28;20211;-79
2022/05/21 06:49:44;;;;;;;7.00;3.58;;;17.00;99.90;;;;;;5034116;28;20183;-79
2022/05/21 06:52:10;;;;;;;13.70;3.70;;;16.80;99.90;;;;;;5034121;28;20172;-79
2022/05/21 06:54:35;;;;;;;11.02;3.83;;;16.80;99.90;;;;;;5033549;28;20225;-79
2022/05/21 06:57:01;;;;;;;16.48;3.55;;;17.00;99.90;;;;;;5033736;28;20203;-79
2022/05/21 06:59:27;;;;;;;11.40;3.53;;;17.30;99.90;;;;;;5033630;28;20160;-77
2022/05/21 07:01:53;;;;;;;7.47;3.28;;;17.40;99.90;;;;;;5033176;28;20172;-78
2022/05/21 07:07:32;;;;;;;9.75;3.83;;;17.60;99.90;;;;;;5032763;28;20255;-78
2022/05/21 07:09:49;;;;;;;19.98;4.05;;;17.70;99.90;;;;;;5033258;28;20237;-79
2022/05/21 07:12:14;;;;;;;10.32;5.53;;;17.80;99.90;;;;;;5033411;28;20263;-78
2022/05/21 07:14:40;;;;;;;22.40;4.68;;;17.60;99.90;;;;;;5033493;28;20175;-80
2022/05/21 07:17:06;;;;;;;16.02;6.82;;;17.60;99.90;;;;;;5033317;28;20189;-86
2022/05/21 07:19:34;;;;;;;13.55;3.90;;;17.70;99.90;;;;;;5015393;28;20278;-78
2022/05/21 07:22:03;;;;;;;11.55;3.80;;;17.60;99.90;;;;;;5033380;28;20263;-79
2022/05/21 07:24:28;;;;;;;11.13;3.03;;;17.70;99.90;;;;;;5032547;28;20641;-78
2022/05/21 07:26:54;;;;;;;12.38;3.45;;;18.00;99.90;;;;;;5023005;28;20221;-77
2022/05/21 07:29:20;;;;;;;18.95;4.30;;;18.10;99.90;;;;;;5037214;28;20178;-79
2022/05/21 07:31:45;;;;;;;10.45;3.38;;;18.60;99.90;;;;;;5033091;28;20164;-79
2022/05/21 07:34:11;;;;;;;13.05;3.33;;;18.70;99.90;;;;;;5032942;28;20199;-78
2022/05/21 07:36:37;;;;;;;10.00;3.30;;;18.70;99.90;;;;;;5033237;28;20190;-79
2022/05/21 07:39:03;;;;;;;10.13;3.58;;;19.10;99.90;;;;;;5033093;28;20202;-79
2022/05/21 07:41:28;;;;;;;12.07;2.42;;;19.70;99.90;;;;;;5033296;28;20256;-79
2022/05/21 07:43:54;;;;;;;16.88;2.92;;;19.80;99.90;;;;;;5032973;28;20175;-78
2022/05/21 07:46:19;;;;;;;12.43;2.75;;;20.00;99.90;;;;;;5033246;28;20726;-80
2022/05/21 07:48:45;;;;;;;9.80;2.97;;;20.00;99.90;;;;;;5016483;28;20172;-83
2022/05/21 07:51:11;;;;;;;16.85;2.92;;;19.90;99.90;;;;;;5016241;28;20187;-85
2022/05/21 07:53:40;;;;;;;15.88;3.13;;;19.60;99.90;;;;;;5016780;28;20164;-89
2022/05/21 07:56:10;;;;;;;17.00;3.05;;;19.40;99.90;;;;;;5017676;28;20171;-88
2022/05/21 07:58:37;;;;;;;11.25;2.67;;;19.30;99.90;;;;;;5016022;28;20184;-84
2022/05/21 08:01:03;;;;;;;14.00;2.78;;;19.40;99.90;;;;;;5016070;28;20168;-86
2022/05/21 08:03:29;;;;;;;7.43;2.05;;;19.00;99.90;;;;;;5016990;28;20254;-86
2022/05/21 08:05:55;;;;;;;11.20;2.35;;;19.00;99.90;;;;;;5018962;28;20207;-87
2022/05/21 08:08:22;;;;;;;4.25;2.17;;;19.00;99.90;;;;;;5018938;28;20196;-87
2022/05/21 08:10:47;;;;;;;9.07;2.50;;;19.10;99.90;;;;;;5017933;28;20171;-87
2022/05/21 08:13:15;;;;;;;14.25;2.72;;;19.30;99.90;;;;;;5018219;28;20621;-87
2022/05/21 08:15:41;;;;;;;10.40;2.75;;;19.70;99.90;;;;;;5017772;28;20163;-86
2022/05/21 08:18:07;;;;;;;9.57;2.42;;;19.90;99.90;;;;;;5017198;28;20199;-87
2022/05/21 08:20:37;;;;;;;14.85;2.88;;;19.80;99.90;;;;;;5020687;28;20182;-87
2022/05/21 08:28:34;;;;;;;18.27;2.80;;;19.50;99.90;;;;;;5035249;28;20198;-87
2022/05/21 08:31:01;;;;;;;12.13;2.03;;;19.50;99.90;;;;;;5016857;28;20160;-86
2022/05/21 08:33:28;;;;;;;7.97;3.00;;;19.60;99.90;;;;;;5017321;28;20543;-87
2022/05/21 08:35:53;;;;;;;11.27;2.05;;;19.60;99.90;;;;;;5017115;28;20179;-87
2022/05/21 08:38:20;;;;;;;16.42;2.03;;;19.30;99.90;;;;;;5016439;28;20188;-87
2022/05/21 08:40:54;;;;;;;12.60;2.38;;;19.00;99.90;;;;;;5017051;28;20164;-85
2022/05/21 08:43:22;;;;;;;16.90;2.42;;;18.80;99.90;;;;;;5016597;28;20180;-85
2022/05/21 08:46:07;;;;;;;9.43;2.53;;;18.90;99.90;;;;;;5016122;28;20215;-83
2022/05/21 08:48:33;;;;;;;6.13;2.03;;;19.10;99.90;;;;;;5015006;28;20310;-81
2022/05/21 08:51:04;;;;;;;6.53;1.90;;;19.10;99.90;;;;;;5014623;28;20164;-82
2022/05/21 08:53:31;;;;;;;12.10;2.70;;;19.40;99.90;;;;;;5032476;28;20176;-81
2022/05/21 08:56:01;;;;;;;8.57;2.00;;;19.30;99.90;;;;;;5032591;28;20164;-82
2022/05/21 08:59:00;;;;;;;6.10;2.13;;;19.10;99.90;;;;;;5014288;28;20192;-82
2022/05/21 09:01:26;;;;;;;6.22;2.00;;;19.10;99.90;;;;;;4997668;28;20703;-81
2022/05/21 09:03:56;;;;;;;20.13;3.17;;;18.90;99.90;;;;;;5014196;28;20270;-81
2022/05/21 09:06:41;;;;;;;19.63;2.30;;;18.70;99.90;;;;;;5014544;28;20203;-78
2022/05/21 09:09:15;;;;;;;8.32;2.10;;;18.80;99.90;;;;;;5030736;28;20214;-78
2022/05/21 09:11:44;;;;;;;16.10;2.15;;;19.20;99.90;;;;;;5031416;28;20181;-78
2022/05/21 09:14:42;;;;;;;5.72;1.70;;;19.50;99.90;;;;;;5032765;28;20222;-78
2022/05/21 09:17:13;;;;;;;6.03;2.17;;;19.40;99.90;;;;;;5055547;28;20188;-79
2022/05/21 09:19:45;;;;;;;11.73;2.47;;;19.60;99.90;;;;;;5055708;28;20211;-79
2022/05/21 09:22:13;;;;;;;10.75;2.60;;;19.80;99.90;;;;;;5054185;28;20164;-79
2022/05/21 09:24:42;;;;;;;14.35;2.53;;;20.00;99.90;;;;;;5042039;28;20238;-78
2022/05/21 09:27:43;;;;;;;9.70;1.75;;;20.00;99.90;;;;;;5037145;28;20199;-79
2022/05/21 09:30:28;;;;;;;11.60;2.83;;;20.40;99.90;;;;;;4957133;29;20256;-78
2022/05/21 09:32:58;;;;;;;13.07;2.58;;;20.70;99.90;;;;;;5029358;28;20180;-79
2022/05/21 09:35:28;;;;;;;10.07;2.28;;;20.70;99.90;;;;;;5036015;28;20175;-79
2022/05/21 09:37:54;;;;;;;13.18;2.55;;;20.80;99.90;;;;;;5035779;28;20671;-79
2022/05/21 09:40:31;;;;;;;15.50;2.60;;;20.80;99.90;;;;;;5035752;28;20160;-80
2022/05/21 09:45:43;;;;;;;6.00;1.60;;;21.20;99.90;;;;;;5035848;28;20649;-81
2022/05/21 09:48:08;;;;;;;7.45;2.70;;;21.40;99.90;;;;;;5035194;28;20241;-78
2022/05/21 09:50:57;;;;;;;19.75;2.10;;;21.30;99.90;;;;;;5035311;28;20172;-79
2022/05/21 09:53:36;;;;;;;12.93;2.25;;;20.90;99.90;;;;;;5034872;28;20699;-79
2022/05/21 09:56:07;;;;;;;11.98;2.05;;;20.60;99.90;;;;;;5035168;28;20523;-81
2022/05/21 09:58:39;;;;;;;7.63;1.88;;;20.60;99.90;;;;;;5034745;28;20270;-80
2022/05/21 10:01:08;;;;;;;11.50;2.40;;;20.50;99.90;;;;;;5035020;28;20270;-80
2022/05/21 10:03:55;;;;;;;7.75;2.00;;;20.40;99.90;;;;;;5035463;28;20203;-82
2022/05/21 10:06:26;;;;;;;8.75;1.42;;;20.60;99.90;;;;;;5034648;28;20234;-82
2022/05/21 10:12:17;;;;;;;5.97;1.70;;;20.90;99.90;;;;;;5035136;28;20182;-82
2022/05/21 10:15:14;;;;;;;5.07;1.45;;;21.20;99.90;;;;;;5034984;28;20170;-82
2022/05/21 10:17:43;;;;;;;8.63;1.80;;;21.40;99.90;;;;;;5012797;28;20303;-81
2022/05/21 10:20:20;;;;;;;5.72;1.63;;;21.20;99.90;;;;;;5016448;28;20650;-84
2022/05/21 10:23:15;;;;;;;13.43;1.70;;;20.80;99.90;;;;;;5016606;28;20172;-81
2022/05/21 10:26:01;;;;;;;4.20;1.42;;;20.60;99.90;;;;;;5034469;28;20204;-82
2022/05/21 10:28:47;;;;;;;8.48;2.05;;;20.40;99.90;;;;;;5016387;28;20660;-81
2022/05/21 10:31:33;;;;;;;8.80;1.92;;;20.20;99.90;;;;;;5034842;28;20182;-81
2022/05/21 10:34:14;;;;;;;14.10;2.17;;;20.30;99.90;;;;;;5016502;28;20178;-81
2022/05/21 10:37:07;;;;;;;5.80;1.70;;;20.40;99.90;;;;;;5016596;28;20200;-81
2022/05/21 10:39:51;;;;;;;6.00;1.30;;;20.40;99.90;;;;;;5015779;28;20525;-82
2022/05/21 10:42:40;;;;;;;5.07;2.05;;;20.50;99.90;;;;;;5034266;28;20213;-82
2022/05/21 10:45:16;;;;;;;4.70;1.80;;;20.80;99.90;;;;;;5034593;28;20178;-85
2022/05/21 10:48:00;;;;;;;7.25;2.05;;;21.00;99.90;;;;;;5035822;28;20649;-85
2022/05/21 10:50:30;;;;;;;7.15;1.38;;;21.20;99.90;;;;;;5018055;28;20179;-84
2022/05/21 10:53:29;;;;;;;11.07;1.83;;;21.20;99.90;;;;;;5017610;28;20172;-91
2022/05/21 10:56:04;;;;;;;12.70;1.85;;;21.10;99.90;;;;;;5035299;28;20179;-85
2022/05/21 10:58:51;;;;;;;4.97;1.77;;;21.40;99.90;;;;;;5018330;28;20195;-92
2022/05/21 11:01:22;;;;;;;7.68;1.20;;;21.60;99.90;;;;;;5018789;28;20655;-90
2022/05/21 11:04:12;;;;;;;7.95;1.20;;;21.50;99.90;;;;;;5035962;28;20168;-84
2022/05/21 11:07:35;;;;;;;6.93;1.33;;;21.50;99.90;;;;;;5017898;28;20687;-84
2022/05/21 11:10:15;;;;;;;4.80;1.30;;;21.40;99.90;;;;;;4939100;29;20191;-86
2022/05/21 11:12:44;;;;;;;4.65;1.55;;;21.20;99.90;;;;;;4955571;29;20178;-91
2022/05/21 11:15:22;;;;;;;5.13;1.42;;;21.20;99.90;;;;;;4983520;28;20183;-84
2022/05/21 11:17:54;;;;;;;10.35;1.40;;;21.20;99.90;;;;;;5016745;28;20754;-85
2022/05/21 11:20:29;;;;;;;4.07;1.10;;;21.50;99.90;;;;;;5034773;28;20175;-84
2022/05/21 11:23:18;;;;;;;9.95;5.35;;;21.60;99.90;;;;;;5017105;28;20187;-86
2022/05/21 11:25:50;;;;;;;14.00;7.28;;;21.20;99.90;;;;;;5016214;28;20318;-86
2022/05/21 11:28:53;;;;;;;4.47;1.60;;;20.90;99.90;;;;;;5016800;28;20191;-87
2022/05/21 11:37:21;;;;;;;5.85;1.35;;;22.00;99.90;;;;;;5033305;28;20604;-83
2022/05/21 11:39:51;;;;;;;2.83;1.30;;;22.40;99.90;;;;;;5033083;28;20679;-81
2022/05/21 11:42:23;;;;;;;9.98;1.73;;;22.00;99.90;;;;;;5034596;28;20172;-83
2022/05/21 11:44:55;;;;;;;3.08;1.73;;;22.20;99.90;;;;;;5016537;28;20160;-84
2022/05/21 11:47:21;;;;;;;5.45;1.48;;;22.20;99.90;;;;;;5015674;28;20215;-93
2022/05/21 11:50:01;;;;;;;11.05;2.13;;;22.20;99.90;;;;;;5017051;28;20225;-84
2022/05/21 11:52:27;;;;;;;5.43;1.35;;;22.30;99.90;;;;;;5034575;28;20175;-84
2022/05/21 11:55:10;;;;;;;12.18;1.90;;;22.10;99.90;;;;;;5016109;28;20199;-84
2022/05/21 11:57:43;;;;;;;8.80;1.52;;;22.10;99.90;;;;;;5015879;28;20199;-84
2022/05/21 12:00:18;;;;;;;19.58;1.67;;;22.00;99.90;;;;;;5015804;28;20168;-90
2022/05/21 12:02:56;;;;;;;6.68;1.35;;;22.20;99.90;;;;;;5034281;28;20168;-91
2022/05/21 12:05:46;;;;;;;16.67;1.90;;;22.10;99.90;;;;;;5034061;28;20162;-83
2022/05/21 12:08:27;;;;;;;6.07;1.13;;;22.10;99.90;;;;;;5034176;28;20236;-83
2022/05/21 12:11:04;;;;;;;11.98;1.23;;;22.10;99.90;;;;;;5016369;28;20171;-85
2022/05/21 12:13:39;;;;;;;3.50;1.00;;;22.20;99.90;;;;;;5034073;28;20172;-83
2022/05/21 12:16:16;;;;;;;2.90;1.00;;;22.30;99.90;;;;;;5017116;28;20175;-84
2022/05/21 12:18:47;;;;;;;5.78;1.40;;;22.10;99.90;;;;;;5015745;28;20642;-82
2022/05/21 12:21:36;;;;;;;5.70;1.38;;;22.20;99.90;;;;;;5034058;28;20532;-86
2022/05/21 12:24:25;;;;;;;6.07;1.40;;;22.70;99.90;;;;;;5003809;28;20345;-83
2022/05/21 12:27:05;;;;;;;3.03;1.10;;;22.90;99.90;;;;;;5016443;28;20706;-82
2022/05/21 12:29:40;;;;;;;7.05;1.20;;;23.00;99.90;;;;;;5015774;28;20198;-81
2022/05/21 12:32:14;;;;;;;3.70;1.25;;;23.00;99.90;;;;;;5032149;28;20191;-83
2022/05/21 12:35:17;;;;;;;3.38;1.20;;;23.00;99.90;;;;;;5014555;28;20203;-83
2022/05/21 12:37:50;;;;;;;4.25;1.15;;;22.60;99.90;;;;;;5014553;28;20198;-83
2022/05/21 12:40:38;;;;;;;5.65;1.80;;;22.80;99.90;;;;;;5015106;28;20266;-83
2022/05/21 12:43:12;;;;;;;7.07;1.27;;;22.80;99.90;;;;;;5015207;28;20168;-83
2022/05/21 12:45:44;;;;;;;6.97;1.33;;;22.60;99.90;;;;;;5015179;28;20206;-83
2022/05/21 12:48:32;;;;;;;4.05;1.33;;;22.80;99.90;;;;;;5032108;28;20194;-86
2022/05/21 12:51:07;;;;;;;3.20;1.35;;;22.70;99.90;;;;;;5032141;28;20180;-83
2022/05/21 12:53:44;;;;;;;1.90;0.80;;;22.80;99.90;;;;;;5014888;28;20199;-82
2022/05/21 12:56:12;;;;;;;1.95;1.00;;;22.90;99.90;;;;;;5033178;28;20629;-82
2022/05/21 12:58:38;;;;;;;3.67;1.13;;;23.00;99.90;;;;;;5032515;28;20660;-82
2022/05/21 13:01:05;;;;;;;4.00;1.25;;;23.00;99.90;;;;;;5033874;28;20167;-83
2022/05/21 13:03:34;;;;;;;3.70;0.98;;;23.00;99.90;;;;;;5036836;28;20167;-83
2022/05/21 13:06:06;;;;;;;9.27;0.85;;;22.90;99.90;;;;;;5018881;28;20208;-83
2022/05/21 13:08:36;;;;;;;8.60;1.58;;;22.80;99.90;;;;;;5018770;28;20183;-83
2022/05/21 13:11:04;;;;;;;4.00;1.17;;;23.00;99.90;;;;;;5018760;28;20259;-83
2022/05/21 13:13:40;;;;;;;6.40;1.02;;;23.00;99.90;;;;;;5036446;28;20167;-83
2022/05/21 13:16:08;;;;;;;4.68;0.90;;;22.80;99.00;;;;;;5018428;28;20698;-83
2022/05/21 13:19:10;;;;;;;4.40;1.13;;;22.60;99.40;;;;;;5018452;28;20287;-83
2022/05/21 13:21:42;;;;;;;2.13;1.10;;;22.50;99.30;;;;;;5018863;28;20170;-83
2022/05/21 13:24:19;;;;;;;2.75;1.48;;;22.60;99.90;;;;;;5017919;28;20652;-83
2022/05/21 13:27:13;;;;;;;6.30;0.90;;;22.60;99.40;;;;;;5018400;28;20226;-83
2022/05/21 13:29:40;;;;;;;5.82;1.73;;;22.80;99.40;;;;;;5018844;28;20198;-83
2022/05/21 13:32:28;;;;;;;4.95;1.60;;;22.70;99.30;;;;;;5018319;28;20250;-82
2022/05/21 13:34:59;;;;;;;4.68;0.95;;;22.90;99.90;;;;;;5018704;28;20191;-83